Time;durP1;ratioP1;P1;durP2;ratioP2;P2;SDS_P1;SDS_P2;PMS_P1;PMS_P2;Temp;Humidity;BMP_temperature;BMP_pressure;BME280_temperature;BME280_humidity;BME280_pressure;Samples;Min_cycle;Max_cycle;Signal;HPM_P1;HPM_P2
2021/07/05 00:00:24;;;;;;;8.55;5.60;;;;;;;19.78;86.47;100008.44;5056015;28;20056;-81
2021/07/05 00:03:28;;;;;;;6.75;5.65;;;;;;;19.82;85.97;100002.41;5056075;28;20058;-79
2021/07/05 00:06:33;;;;;;;6.20;5.60;;;;;;;19.80;85.40;99996.28;5056174;28;20051;-80
2021/07/05 00:09:39;;;;;;;6.60;5.57;;;;;;;19.73;85.21;99989.97;5055045;28;20052;-80
2021/07/05 00:12:48;;;;;;;6.18;5.13;;;;;;;19.54;85.83;99995.31;5056033;28;20052;-78
2021/07/05 00:15:52;;;;;;;6.47;5.88;;;;;;;19.47;86.63;99992.56;5054970;28;20067;-79
2021/07/05 00:18:56;;;;;;;6.82;5.68;;;;;;;19.40;86.94;99995.25;5054845;28;20064;-79
2021/07/05 00:22:00;;;;;;;6.72;6.00;;;;;;;19.34;87.34;100006.06;5055895;28;20064;-80
2021/07/05 00:25:06;;;;;;;8.45;5.90;;;;;;;19.35;87.47;100005.88;5055636;28;20056;-79
2021/07/05 00:28:10;;;;;;;6.53;5.93;;;;;;;19.27;87.57;100000.56;5055274;28;20052;-78
2021/07/05 00:31:15;;;;;;;6.32;5.72;;;;;;;19.21;87.86;99989.63;5055747;28;20483;-80
2021/07/05 00:34:19;;;;;;;7.25;6.55;;;;;;;19.22;88.00;99991.31;5055576;28;20068;-82
2021/07/05 00:37:24;;;;;;;8.98;6.38;;;;;;;19.28;87.94;99993.25;5055187;28;20048;-80
2021/07/05 00:40:30;;;;;;;7.40;6.70;;;;;;;19.24;87.41;99983.78;5055516;28;20056;-78
2021/07/05 00:43:34;;;;;;;7.53;6.55;;;;;;;19.18;87.75;99993.59;5055131;28;20044;-82
2021/07/05 00:46:39;;;;;;;7.90;6.30;;;;;;;19.18;88.07;99993.59;5053956;28;20048;-81
2021/07/05 00:49:43;;;;;;;9.07;6.60;;;;;;;19.13;88.45;100006.13;5055045;28;20048;-81
2021/07/05 00:52:52;;;;;;;8.85;7.25;;;;;;;19.10;88.85;99998.34;5054741;28;20052;-81
2021/07/05 00:55:56;;;;;;;7.88;7.07;;;;;;;19.03;89.28;100003.75;5054396;28;20056;-83
2021/07/05 00:59:01;;;;;;;8.40;6.78;;;;;;;19.09;89.25;100015.72;5053613;28;20064;-81
2021/07/05 01:02:06;;;;;;;8.23;7.18;;;;;;;19.04;89.43;100015.47;5055076;28;20052;-80
2021/07/05 01:05:11;;;;;;;8.00;7.30;;;;;;;19.08;89.24;100020.34;5053585;28;20052;-81
2021/07/05 01:08:15;;;;;;;7.65;6.85;;;;;;;19.14;88.95;100029.56;5034810;28;20092;-82
2021/07/05 01:11:21;;;;;;;8.50;6.93;;;;;;;19.09;88.64;100035.59;5034979;28;20045;-81
2021/07/05 01:14:25;;;;;;;7.65;6.93;;;;;;;19.11;88.66;100040.88;5034431;28;20060;-81
2021/07/05 01:17:30;;;;;;;8.20;6.70;;;;;;;19.16;88.84;100036.50;5034595;28;20061;-81
2021/07/05 01:20:37;;;;;;;7.35;6.65;;;;;;;19.21;88.43;100038.59;5034524;28;20048;-82
2021/07/05 01:23:41;;;;;;;8.55;6.82;;;;;;;19.17;88.74;100035.47;5034779;28;20052;-81
2021/07/05 01:26:46;;;;;;;10.27;6.57;;;;;;;19.16;88.97;100027.50;5034465;28;20056;-80
2021/07/05 01:29:51;;;;;;;8.75;7.45;;;;;;;19.10;88.79;100036.44;5034384;28;20052;-80
2021/07/05 01:33:02;;;;;;;7.40;6.70;;;;;;;19.04;89.20;100035.34;5034184;28;20056;-80
2021/07/05 01:36:08;;;;;;;7.43;6.72;;;;;;;19.00;89.23;100049.53;5034650;28;20052;-80
2021/07/05 01:39:13;;;;;;;7.82;6.97;;;;;;;18.92;89.86;100041.50;5033146;28;20397;-79
2021/07/05 01:42:19;;;;;;;7.97;7.18;;;;;;;18.87;89.83;100043.97;5034435;28;20452;-82
2021/07/05 01:45:30;;;;;;;8.05;7.35;;;;;;;18.86;90.24;100050.47;5034125;28;20053;-78
2021/07/05 01:48:34;;;;;;;7.97;7.03;;;;;;;18.82;90.01;100052.72;5034071;28;20052;-77
2021/07/05 01:51:38;;;;;;;8.25;6.68;;;;;;;18.87;90.10;100052.97;5033992;28;20060;-76
2021/07/05 01:54:43;;;;;;;8.25;7.00;;;;;;;18.93;89.92;100043.22;5034278;28;20381;-79
2021/07/05 01:57:48;;;;;;;8.02;7.07;;;;;;;18.94;89.38;100053.03;5034083;28;20048;-82
2021/07/05 02:00:53;;;;;;;10.48;6.78;;;;;;;19.00;89.55;100054.97;5033912;28;20385;-79
2021/07/05 02:03:58;;;;;;;7.32;6.60;;;;;;;18.91;89.53;100057.03;5034136;28;20052;-80
2021/07/05 02:07:02;;;;;;;8.18;7.38;;;;;;;18.84;90.03;100046.06;5032815;28;20394;-81
2021/07/05 02:10:16;;;;;;;8.65;7.45;;;;;;;18.80;89.72;100030.31;5033448;28;20053;-82
2021/07/05 02:13:29;;;;;;;8.10;7.32;;;;;;;18.75;90.02;100038.22;5034118;28;20487;-81
2021/07/05 02:16:33;;;;;;;8.50;7.47;;;;;;;18.75;90.57;100027.34;5034156;28;20041;-82
2021/07/05 02:19:38;;;;;;;9.05;8.15;;;;;;;18.80;89.82;100033.91;5032991;28;20052;-83
2021/07/05 02:22:44;;;;;;;8.80;6.80;;;;;;;18.81;89.34;100032.84;5033554;28;20044;-83
2021/07/05 02:25:50;;;;;;;8.40;7.47;;;;;;;18.81;89.08;100042.91;5033731;28;20045;-81
2021/07/05 02:28:56;;;;;;;7.55;6.85;;;;;;;18.71;89.28;100043.19;5033674;28;20389;-81
2021/07/05 02:32:00;;;;;;;10.93;6.68;;;;;;;18.64;89.43;100041.47;5033696;28;20061;-81
2021/07/05 02:35:06;;;;;;;7.88;6.95;;;;;;;18.58;89.45;100051.25;5033969;28;20056;-79
2021/07/05 02:38:12;;;;;;;8.32;7.47;;;;;;;18.55;89.45;100048.06;5033486;28;20056;-81
2021/07/05 02:41:17;;;;;;;8.27;7.38;;;;;;;18.53;89.58;100042.84;5032567;28;20117;-81
2021/07/05 02:44:21;;;;;;;11.93;7.13;;;;;;;18.46;89.43;100043.75;5033876;28;20056;-79
2021/07/05 02:47:25;;;;;;;8.05;7.05;;;;;;;18.39;89.79;100046.41;5032877;28;20052;-79
2021/07/05 02:50:30;;;;;;;7.25;6.55;;;;;;;18.36;89.90;100041.34;5033230;28;20072;-79
2021/07/05 02:53:35;;;;;;;8.18;7.22;;;;;;;18.38;89.81;100038.44;5033735;28;20476;-82
2021/07/05 02:56:39;;;;;;;7.25;6.53;;;;;;;18.37;89.74;100034.88;5032660;28;20052;-81
2021/07/05 02:59:44;;;;;;;7.10;6.40;;;;;;;18.34;89.95;100039.88;5033248;28;20396;-82
2021/07/05 03:02:48;;;;;;;8.45;7.60;;;;;;;18.39;89.59;100037.41;5033570;28;20057;-80
2021/07/05 03:05:53;;;;;;;8.35;6.55;;;;;;;18.33;89.39;100040.88;5055136;28;20499;-82
2021/07/05 03:08:58;;;;;;;7.40;6.70;;;;;;;18.30;89.62;100047.53;5033387;28;20069;-82
2021/07/05 03:12:02;;;;;;;7.13;6.28;;;;;;;18.33;89.30;100049.03;5033108;28;20044;-83
2021/07/05 03:15:09;;;;;;;8.18;6.13;;;;;;;18.28;89.63;100041.47;5032954;28;20053;-82
2021/07/05 03:18:14;;;;;;;7.65;6.07;;;;;;;18.30;89.36;100047.53;5033320;28;20052;-80
2021/07/05 03:21:18;;;;;;;6.43;5.63;;;;;;;18.40;88.70;100064.38;5033161;28;20476;-82
2021/07/05 03:24:22;;;;;;;8.10;6.07;;;;;;;18.45;88.05;100080.97;5046953;28;20048;-81
2021/07/05 03:27:28;;;;;;;8.25;5.53;;;;;;;18.42;87.90;100081.34;5036916;28;20041;-82
2021/07/05 03:30:34;;;;;;;6.32;5.68;;;;;;;18.38;87.82;100092.78;5035792;28;20049;-82
2021/07/05 03:33:39;;;;;;;5.95;5.45;;;;;;;18.29;87.69;100081.22;5035540;28;20172;-82
2021/07/05 03:36:43;;;;;;;6.22;5.25;;;;;;;18.28;87.28;100084.94;5035891;28;20048;-82
2021/07/05 03:39:47;;;;;;;7.03;4.75;;;;;;;18.21;87.21;100084.03;5036423;28;20056;-82
2021/07/05 03:42:54;;;;;;;6.85;5.65;;;;;;;18.16;87.43;100075.59;5036190;28;20064;-81
2021/07/05 03:45:58;;;;;;;9.18;5.60;;;;;;;18.14;87.82;100074.97;5036274;28;20515;-82
2021/07/05 03:49:04;;;;;;;8.80;5.53;;;;;;;18.16;87.64;100068.31;5036331;28;20056;-79
2021/07/05 03:52:10;;;;;;;6.10;5.50;;;;;;;18.22;87.52;100063.13;5036516;28;20389;-82
2021/07/05 03:55:17;;;;;;;7.00;5.30;;;;;;;18.35;87.11;100069.56;5035112;28;20393;-81
2021/07/05 03:58:22;;;;;;;5.60;4.55;;;;;;;18.52;86.00;100064.75;5035336;28;20072;-82
2021/07/05 04:01:26;;;;;;;7.90;5.05;;;;;;;18.59;85.32;100069.22;5035482;28;20053;-81
2021/07/05 04:04:31;;;;;;;6.38;4.40;;;;;;;18.75;83.71;100065.41;5035379;28;20113;-81
2021/07/05 04:07:35;;;;;;;6.00;4.65;;;;;;;18.76;83.73;100067.94;5035080;28;20044;-81
2021/07/05 04:10:39;;;;;;;6.80;4.28;;;;;;;18.76;83.41;100076.09;5036132;28;20056;-81
2021/07/05 04:13:43;;;;;;;6.80;4.53;;;;;;;18.72;83.43;100077.53;5036107;28;20056;-81
2021/07/05 04:16:48;;;;;;;5.15;4.47;;;;;;;18.83;82.56;100068.03;5035779;28;20056;-81
2021/07/05 04:19:52;;;;;;;6.47;4.47;;;;;;;18.99;81.14;100075.06;5035598;28;20060;-82
2021/07/05 04:22:56;;;;;;;5.28;3.72;;;;;;;19.16;80.48;100081.94;5035948;28;20057;-82
2021/07/05 04:26:02;;;;;;;5.80;3.92;;;;;;;19.43;79.36;100086.53;5035900;28;20057;-80
2021/07/05 04:29:07;;;;;;;5.35;3.78;;;;;;;19.62;78.26;100091.31;5039456;28;20051;-81
2021/07/05 04:32:12;;;;;;;4.38;3.10;;;;;;;20.07;76.79;100081.72;5034917;28;20056;-79
2021/07/05 04:35:18;;;;;;;7.25;3.85;;;;;;;20.76;73.81;100082.41;5035272;28;20127;-81
2021/07/05 04:38:24;;;;;;;6.35;3.70;;;;;;;21.20;71.51;100079.97;5057301;28;20377;-81
2021/07/05 04:41:28;;;;;;;4.85;2.90;;;;;;;21.53;69.76;100084.59;5043023;28;20040;-82
2021/07/05 04:44:33;;;;;;;4.05;2.63;;;;;;;21.78;68.81;100091.03;5055126;28;20048;-83
2021/07/05 04:47:39;;;;;;;3.30;2.75;;;;;;;22.10;66.84;100090.16;5053733;28;20064;-81
2021/07/05 04:50:43;;;;;;;6.40;2.60;;;;;;;22.32;65.93;100083.31;5055211;28;20048;-83
2021/07/05 04:53:47;;;;;;;5.65;2.45;;;;;;;22.40;65.30;100093.19;5053849;28;20048;-83
2021/07/05 04:56:51;;;;;;;3.90;2.40;;;;;;;22.50;64.75;100082.63;5055141;28;20048;-81
2021/07/05 04:59:56;;;;;;;8.70;7.28;;;;;;;22.55;65.24;100086.38;5054793;28;20494;-82
2021/07/05 05:03:02;;;;;;;17.52;14.90;;;;;;;22.73;64.04;100071.16;5054360;28;20072;-82
2021/07/05 05:06:06;;;;;;;6.97;4.63;;;;;;;22.98;63.04;100077.53;5054678;28;20045;-82
2021/07/05 05:09:11;;;;;;;7.78;2.40;;;;;;;23.53;61.90;100081.31;5054699;28;20052;-82
2021/07/05 05:12:15;;;;;;;6.13;2.33;;;;;;;23.81;60.55;100085.25;5054191;28;20419;-82
2021/07/05 05:15:20;;;;;;;5.28;2.08;;;;;;;24.21;59.70;100084.81;5054671;28;20052;-82
2021/07/05 05:18:25;;;;;;;5.35;2.55;;;;;;;24.31;58.71;100093.34;5052879;28;20048;-82
2021/07/05 05:21:30;;;;;;;5.90;2.20;;;;;;;24.75;57.45;100090.22;5053500;28;20400;-84
2021/07/05 05:24:35;;;;;;;3.42;1.75;;;;;;;25.44;55.72;100086.84;5052816;28;20040;-83
2021/07/05 05:27:39;;;;;;;7.25;2.33;;;;;;;26.12;53.72;100078.84;5054225;28;20048;-83
2021/07/05 05:30:44;;;;;;;5.05;1.85;;;;;;;26.83;52.52;100091.34;5054660;28;20064;-80
2021/07/05 05:33:49;;;;;;;8.05;2.17;;;;;;;27.81;49.88;100088.91;5054089;28;20052;-81
2021/07/05 05:36:53;;;;;;;6.50;1.88;;;;;;;28.45;47.89;100089.25;5054275;28;20052;-81
2021/07/05 05:39:58;;;;;;;4.80;1.88;;;;;;;29.79;44.79;100079.00;5054207;28;20056;-83
2021/07/05 05:43:07;;;;;;;11.73;2.22;;;;;;;30.68;42.70;100072.28;5054490;28;20056;-82
2021/07/05 05:46:15;;;;;;;12.15;2.20;;;;;;;32.24;39.79;100077.03;5052187;28;20515;-82
2021/07/05 05:49:19;;;;;;;8.30;2.30;;;;;;;33.09;37.74;100081.31;5051892;28;20072;-82
2021/07/05 05:52:24;;;;;;;5.28;1.85;;;;;;;34.27;36.16;100085.56;5042038;28;20048;-81
2021/07/05 05:55:28;;;;;;;5.18;1.60;;;;;;;35.35;33.45;100076.25;5032601;28;20049;-83
2021/07/05 05:58:38;;;;;;;13.52;2.00;;;;;;;35.76;33.39;100071.66;5032285;28;20048;-85
2021/07/05 06:01:48;;;;;;;4.40;1.52;;;;;;;36.14;32.67;100070.38;5034359;28;20060;-84
2021/07/05 06:04:52;;;;;;;6.00;1.58;;;;;;;38.03;30.56;100075.72;5033427;28;20052;-83
2021/07/05 06:07:57;;;;;;;4.13;1.73;;;;;;;40.66;27.25;100074.34;5049326;28;20384;-84
2021/07/05 06:11:02;;;;;;;4.63;1.60;;;;;;;41.74;25.36;100080.94;5053643;28;20510;-81
2021/07/05 06:14:07;;;;;;;6.63;2.15;;;;;;;42.53;24.75;100083.31;5053373;28;20060;-82
2021/07/05 06:17:12;;;;;;;5.70;1.60;;;;;;;42.83;23.97;100075.38;5048008;28;20048;-83
2021/07/05 06:20:17;;;;;;;5.55;2.20;;;;;;;42.93;24.42;100075.75;5049218;28;20511;-83
2021/07/05 06:23:25;;;;;;;4.43;1.63;;;;;;;44.33;23.48;100078.13;5049550;28;20056;-83
2021/07/05 06:26:29;;;;;;;6.55;1.55;;;;;;;44.83;22.58;100080.16;5050154;28;20055;-83
2021/07/05 06:29:36;;;;;;;4.43;1.52;;;;;;;45.87;21.38;100079.19;5050596;28;20048;-84
2021/07/05 06:32:41;;;;;;;6.00;1.50;;;;;;;46.70;20.74;100074.50;5051930;28;20055;-83
2021/07/05 06:35:47;;;;;;;3.35;1.33;;;;;;;46.64;20.52;100073.22;5052667;28;20500;-81
2021/07/05 06:38:51;;;;;;;4.70;1.20;;;;;;;47.45;19.80;100077.25;5052651;28;20060;-80
2021/07/05 06:41:55;;;;;;;4.95;1.83;;;;;;;47.21;20.14;100072.84;5052650;28;20491;-85
2021/07/05 06:45:00;;;;;;;7.30;1.55;;;;;;;46.91;20.10;100078.53;5050469;28;20055;-84
2021/07/05 06:48:06;;;;;;;4.90;1.55;;;;;;;46.22;20.59;100076.97;5051180;28;20052;-84
2021/07/05 06:51:11;;;;;;;3.25;1.00;;;;;;;47.73;19.55;100083.22;5052392;28;20507;-84
2021/07/05 06:54:16;;;;;;;4.93;1.38;;;;;;;48.40;19.09;100083.13;5050332;28;20071;-84
2021/07/05 06:57:29;;;;;;;3.85;1.33;;;;;;;49.10;18.71;100077.09;5035114;28;20056;-82
2021/07/05 07:00:34;;;;;;;3.88;1.20;;;;;;;50.33;17.64;100082.34;5036988;28;20052;-81
2021/07/05 07:03:38;;;;;;;4.63;1.30;;;;;;;49.44;17.99;100067.06;5037398;28;20053;-83
2021/07/05 07:06:48;;;;;;;2.95;1.10;;;;;;;44.51;21.76;100065.28;5037246;28;20408;-81
2021/07/05 07:09:52;;;;;;;3.47;1.30;;;;;;;43.53;23.23;100071.88;5036551;28;20044;-81
2021/07/05 07:12:57;;;;;;;3.92;1.52;;;;;;;40.92;26.16;100074.16;5036315;28;20048;-83
2021/07/05 07:16:02;;;;;;;3.53;1.40;;;;;;;40.04;27.50;100074.16;5035797;28;20052;-82
2021/07/05 07:19:16;;;;;;;3.22;1.50;;;;;;;39.84;27.31;100062.75;5036607;28;20484;-82
2021/07/05 07:22:21;;;;;;;4.50;1.80;;;;;;;41.26;25.75;100062.59;5036278;28;20053;-82
2021/07/05 07:25:25;;;;;;;3.17;1.33;;;;;;;42.56;24.28;100072.13;5035673;28;20057;-83
2021/07/05 07:28:30;;;;;;;5.95;1.52;;;;;;;43.05;23.51;100057.94;5036802;28;20433;-83
2021/07/05 07:31:34;;;;;;;3.78;1.27;;;;;;;42.21;24.81;100059.66;5036453;28;20044;-83
2021/07/05 07:34:39;;;;;;;9.25;2.38;;;;;;;44.02;22.65;100060.31;5035098;28;20052;-83
2021/07/05 07:37:47;;;;;;;6.97;2.70;;;;;;;45.55;21.13;100067.19;5036371;28;20060;-81
2021/07/05 07:40:54;;;;;;;6.43;1.55;;;;;;;47.12;20.01;100062.97;5035937;28;20393;-81
2021/07/05 07:43:59;;;;;;;4.18;1.48;;;;;;;47.94;19.39;100060.72;5036388;28;20048;-80
2021/07/05 07:47:05;;;;;;;3.25;1.23;;;;;;;50.36;17.60;100058.69;5035679;28;20056;-81
2021/07/05 07:50:12;;;;;;;6.63;1.73;;;;;;;47.16;19.63;100056.16;5036206;28;20053;-82
2021/07/05 07:53:17;;;;;;;4.90;1.52;;;;;;;44.09;22.82;100060.53;5035631;28;20052;-81
2021/07/05 07:56:21;;;;;;;3.88;1.27;;;;;;;45.42;21.79;100040.19;5036299;28;20072;-83
2021/07/05 07:59:25;;;;;;;3.38;1.45;;;;;;;44.88;23.16;100059.25;5035301;28;20491;-81
2021/07/05 08:02:30;;;;;;;5.00;1.92;;;;;;;43.31;24.63;100052.66;5036301;28;20404;-82
2021/07/05 08:05:35;;;;;;;3.28;1.90;;;;;;;41.54;26.41;100057.22;5035888;28;20049;-83
2021/07/05 08:08:40;;;;;;;2.70;1.52;;;;;;;40.01;28.54;100051.44;5034558;28;20065;-82
2021/07/05 08:11:44;;;;;;;3.22;1.42;;;;;;;39.54;28.48;100056.19;5036045;28;20511;-79
2021/07/05 08:14:49;;;;;;;5.63;1.98;;;;;;;37.92;30.57;100062.31;5036047;28;20068;-81
2021/07/05 08:17:53;;;;;;;3.67;1.80;;;;;;;37.55;31.91;100063.56;5035742;28;20480;-80
2021/07/05 08:20:57;;;;;;;5.50;2.10;;;;;;;36.87;33.84;100069.38;5035038;28;20448;-80
2021/07/05 08:24:02;;;;;;;4.47;2.70;;;;;;;35.10;36.89;100072.75;5035533;28;20045;-80
2021/07/05 08:27:07;;;;;;;5.28;2.30;;;;;;;35.16;37.07;100074.31;5035747;28;20516;-80
2021/07/05 08:30:11;;;;;;;4.25;2.22;;;;;;;34.77;37.22;100079.34;5035687;28;20064;-83
2021/07/05 08:33:16;;;;;;;7.30;3.20;;;;;;;33.68;38.86;100078.34;5034818;28;20068;-81
2021/07/05 08:36:20;;;;;;;7.03;2.70;;;;;;;33.11;40.56;100086.63;5035437;28;20048;-82
2021/07/05 08:39:25;;;;;;;5.13;2.85;;;;;;;32.79;41.15;100081.47;5035236;28;20048;-81
2021/07/05 08:42:30;;;;;;;4.22;2.67;;;;;;;32.71;40.57;100085.69;5034303;28;20048;-80
2021/07/05 08:45:36;;;;;;;5.13;2.53;;;;;;;31.93;41.98;100084.56;5035131;28;20044;-82
2021/07/05 08:48:42;;;;;;;4.97;1.95;;;;;;;32.21;41.47;100085.91;5035317;28;20048;-80
2021/07/05 08:51:47;;;;;;;5.78;2.65;;;;;;;32.24;42.06;100079.78;5034953;28;20377;-80
2021/07/05 08:54:51;;;;;;;6.55;3.20;;;;;;;31.45;43.72;100083.22;5034104;28;20072;-81
2021/07/05 08:57:56;;;;;;;8.32;2.78;;;;;;;31.40;42.71;100080.44;5035194;28;20045;-80
2021/07/05 09:01:00;;;;;;;4.60;2.50;;;;;;;30.94;44.02;100089.81;5035036;28;20064;-79
2021/07/05 09:04:05;;;;;;;4.15;2.10;;;;;;;31.26;43.21;100084.84;5034543;28;20053;-80
2021/07/05 09:07:11;;;;;;;4.65;2.20;;;;;;;31.78;42.29;100095.69;5033529;28;20424;-80
2021/07/05 09:10:16;;;;;;;5.57;2.55;;;;;;;31.68;42.42;100087.38;5034853;28;20053;-81
2021/07/05 09:13:25;;;;;;;3.70;2.78;;;;;;;31.98;42.03;100090.13;5034801;28;20416;-80
2021/07/05 09:16:35;;;;;;;8.30;2.92;;;;;;;31.93;42.49;100089.28;5046752;28;20052;-81
2021/07/05 09:19:40;;;;;;;8.13;4.80;;;;;;;31.87;43.03;100096.81;5052362;28;20063;-82
2021/07/05 09:23:10;;;;;;;6.80;4.18;;;;;;;31.64;44.88;100104.88;5048854;28;20048;-81
2021/07/05 09:26:20;;;;;;;7.15;4.85;;;;;;;30.91;45.76;100095.94;5053742;28;20499;-83
2021/07/05 09:29:24;;;;;;;7.75;5.82;;;;;;;30.88;46.90;100099.22;5054243;28;20060;-81
2021/07/05 09:32:29;;;;;;;6.78;4.68;;;;;;;31.30;46.07;100102.63;5054436;28;20044;-83
2021/07/05 09:35:37;;;;;;;10.13;6.57;;;;;;;31.65;44.66;100107.38;5052830;28;20104;-80
2021/07/05 09:38:42;;;;;;;7.03;5.28;;;;;;;31.66;45.49;100099.88;5053368;28;20056;-79
2021/07/05 09:41:47;;;;;;;6.18;4.32;;;;;;;31.94;45.48;100099.28;5054374;28;20056;-77
2021/07/05 09:44:52;;;;;;;6.93;5.28;;;;;;;31.87;46.06;100098.75;5054232;28;20056;-81
2021/07/05 09:48:29;;;;;;;12.48;6.32;;;;;;;31.80;45.04;100110.13;5054134;28;20064;-79
2021/07/05 09:51:37;;;;;;;11.40;4.97;;;;;;;31.84;44.87;100108.47;5031532;28;20056;-75
2021/07/05 09:54:49;;;;;;;6.57;4.57;;;;;;;31.58;45.22;100098.47;5031686;28;20149;-80
2021/07/05 09:57:54;;;;;;;7.88;5.97;;;;;;;30.84;47.77;100095.28;5032188;28;20060;-80
2021/07/05 10:00:58;;;;;;;11.18;7.85;;;;;;;30.07;49.76;100104.38;5020295;28;20052;-80
2021/07/05 10:04:08;;;;;;;11.00;6.80;;;;;;;29.78;51.22;100116.91;5031555;28;20053;-80
2021/07/05 10:07:14;;;;;;;8.45;5.90;;;;;;;30.15;49.55;100108.56;5031842;28;20060;-81
2021/07/05 10:10:18;;;;;;;9.20;6.03;;;;;;;30.63;48.67;100112.97;5031828;28;20060;-78
2021/07/05 10:13:23;;;;;;;7.90;7.18;;;;;;;30.36;49.01;100102.06;5031852;28;20148;-80
2021/07/05 10:16:27;;;;;;;8.32;6.60;;;;;;;30.38;49.03;100105.41;5020638;28;20141;-81
2021/07/05 10:19:32;;;;;;;7.90;5.53;;;;;;;30.46;47.83;100107.66;5031809;28;20551;-75
2021/07/05 10:22:41;;;;;;;9.40;5.95;;;;;;;30.50;48.32;100117.09;5031877;28;20057;-76
2021/07/05 10:25:48;;;;;;;8.13;5.80;;;;;;;30.65;47.72;100119.91;5034832;28;20048;-76
2021/07/05 10:28:53;;;;;;;9.77;5.15;;;;;;;30.68;47.21;100122.16;5053747;28;20060;-74
2021/07/05 10:31:58;;;;;;;7.20;5.20;;;;;;;30.57;46.84;100114.91;5054708;28;20048;-81
2021/07/05 10:35:04;;;;;;;5.90;4.60;;;;;;;30.77;46.45;100114.13;5057118;28;20068;-81
2021/07/05 10:38:11;;;;;;;5.57;3.65;;;;;;;30.92;45.52;100122.53;5057018;28;20052;-80
2021/07/05 10:41:16;;;;;;;5.30;4.38;;;;;;;31.06;45.62;100106.22;5057123;28;20064;-80
2021/07/05 10:44:43;;;;;;;6.75;5.00;;;;;;;31.16;44.37;100117.31;5056935;28;20400;-81
2021/07/05 10:47:55;;;;;;;9.55;4.82;;;;;;;30.93;45.94;100118.66;5017892;28;20061;-79
2021/07/05 10:51:00;;;;;;;7.07;6.10;;;;;;;30.67;46.69;100117.72;5016310;28;20092;-79
2021/07/05 10:54:05;;;;;;;5.65;4.32;;;;;;;30.88;46.09;100121.38;5017535;28;20389;-79
2021/07/05 10:57:10;;;;;;;5.03;3.20;;;;;;;30.92;44.18;100108.66;5017648;28;20057;-78
2021/07/05 11:00:19;;;;;;;5.85;4.50;;;;;;;30.71;43.89;100109.69;5017559;28;20061;-79
2021/07/05 11:03:39;;;;;;;5.90;4.00;;;;;;;30.73;42.95;100105.53;5017745;28;20052;-79
2021/07/05 11:06:44;;;;;;;5.35;3.97;;;;;;;31.17;44.01;100100.41;5017675;28;20049;-80
2021/07/05 11:09:56;;;;;;;8.25;7.45;;;;;;;30.86;46.73;100098.66;5017661;28;20060;-80
2021/07/05 11:13:05;;;;;;;9.60;7.10;;;;;;;30.34;46.51;100093.22;5017337;28;20407;-80
2021/07/05 11:16:10;;;;;;;9.63;7.45;;;;;;;30.04;47.72;100102.16;5017485;28;20488;-80
2021/07/05 11:19:37;;;;;;;9.15;7.28;;;;;;;30.10;47.84;100097.47;5017341;28;20052;-79
2021/07/05 11:22:56;;;;;;;11.27;7.72;;;;;;;29.70;48.25;100106.34;5016633;28;20045;-80
2021/07/05 11:26:18;;;;;;;8.40;6.32;;;;;;;30.12;47.26;100090.56;5017123;28;20049;-79
2021/07/05 11:29:25;;;;;;;8.85;5.85;;;;;;;30.58;46.26;100099.94;5017313;28;20060;-80
2021/07/05 11:32:39;;;;;;;7.65;6.25;;;;;;;30.13;46.36;100096.94;5016133;28;20381;-79
2021/07/05 11:35:44;;;;;;;8.93;5.28;;;;;;;30.04;45.74;100085.53;5017165;28;20053;-80
2021/07/05 11:39:01;;;;;;;12.40;6.50;;;;;;;29.59;46.30;100090.75;5017078;28;20052;-80
2021/07/05 11:42:06;;;;;;;8.07;4.03;;;;;;;29.93;47.24;100096.81;5016744;28;20385;-82
2021/07/05 11:45:11;;;;;;;10.35;4.75;;;;;;;30.28;46.11;100089.53;5016079;28;20053;-80
2021/07/05 11:48:58;;;;;;;5.93;3.63;;;;;;;30.27;45.37;100098.09;5016103;28;20072;-81
2021/07/05 11:52:03;;;;;;;7.72;4.60;;;;;;;29.86;46.50;100093.44;5034624;28;20056;-81
2021/07/05 11:55:08;;;;;;;5.40;4.18;;;;;;;29.57;46.53;100099.31;5045420;28;20072;-82
2021/07/05 11:58:13;;;;;;;4.90;3.15;;;;;;;29.68;46.18;100096.63;5016494;28;20447;-80
2021/07/05 12:01:18;;;;;;;5.53;3.70;;;;;;;29.69;46.03;100093.59;5016367;28;20053;-81
2021/07/05 12:04:28;;;;;;;8.65;3.30;;;;;;;29.62;45.55;100095.75;5015588;28;20053;-81
2021/07/05 12:07:33;;;;;;;6.10;3.05;;;;;;;29.58;46.14;100097.34;5016301;28;20412;-81
2021/07/05 12:10:40;;;;;;;5.60;3.10;;;;;;;29.82;46.00;100100.63;5015644;28;20057;-81
2021/07/05 12:13:45;;;;;;;6.07;2.83;;;;;;;29.95;44.99;100100.16;5016265;28;20072;-80
2021/07/05 12:16:57;;;;;;;5.75;3.20;;;;;;;29.98;46.61;100100.44;5027026;28;20488;-80
2021/07/05 12:20:02;;;;;;;5.13;4.27;;;;;;;29.37;46.86;100098.31;5026537;28;20053;-81
2021/07/05 12:23:11;;;;;;;5.38;4.22;;;;;;;29.25;48.12;100100.41;5026702;28;20284;-81
2021/07/05 12:26:21;;;;;;;5.18;3.70;;;;;;;29.18;47.67;100089.53;5015917;28;20053;-81
2021/07/05 12:29:37;;;;;;;4.47;3.15;;;;;;;29.11;48.03;100094.44;5016142;28;20516;-81
2021/07/05 12:32:42;;;;;;;6.53;2.80;;;;;;;29.18;46.99;100108.06;5016088;28;20061;-80
2021/07/05 12:35:47;;;;;;;6.90;2.70;;;;;;;29.14;47.98;100110.50;5026551;28;20049;-80
2021/07/05 12:39:07;;;;;;;6.97;3.20;;;;;;;29.22;46.91;100104.53;5016004;28;20049;-79
2021/07/05 12:42:34;;;;;;;4.57;2.30;;;;;;;29.30;45.53;100098.53;5015929;28;20378;-80
2021/07/05 12:45:45;;;;;;;5.90;1.88;;;;;;;29.63;45.30;100101.00;5020180;28;20053;-80
2021/07/05 12:48:50;;;;;;;6.05;3.10;;;;;;;29.58;44.15;100086.28;5054114;28;20047;-81
2021/07/05 12:51:55;;;;;;;4.75;2.40;;;;;;;29.59;44.78;100085.19;5054857;28;20060;-81
2021/07/05 12:55:15;;;;;;;8.57;3.15;;;;;;;29.54;44.62;100088.78;5053860;28;20055;-80
2021/07/05 12:58:50;;;;;;;8.68;2.83;;;;;;;29.43;44.29;100088.97;5054169;28;20400;-80
2021/07/05 13:01:55;;;;;;;11.25;2.25;;;;;;;29.64;44.78;100082.47;5033006;28;20480;-81
2021/07/05 13:05:25;;;;;;;8.55;2.45;;;;;;;29.61;44.37;100089.38;5032965;28;20540;-81
2021/07/05 13:08:31;;;;;;;10.40;3.03;;;;;;;29.55;43.89;100095.94;5033160;28;20133;-81
2021/07/05 13:11:44;;;;;;;5.85;2.85;;;;;;;29.66;43.95;100085.81;5033081;28;20052;-80
2021/07/05 13:14:49;;;;;;;6.95;2.30;;;;;;;29.78;43.96;100080.09;5032812;28;20053;-80
2021/07/05 13:17:53;;;;;;;5.68;2.30;;;;;;;29.72;43.29;100081.16;5033036;28;20135;-81
2021/07/05 13:20:58;;;;;;;3.55;1.70;;;;;;;29.91;43.16;100083.25;5032434;28;20076;-81
2021/07/05 13:24:18;;;;;;;5.57;1.52;;;;;;;30.06;43.56;100082.50;5032851;28;20041;-81
2021/07/05 13:27:35;;;;;;;5.63;2.05;;;;;;;29.95;42.22;100072.47;5032829;28;20156;-80
2021/07/05 13:30:41;;;;;;;11.07;2.30;;;;;;;30.03;41.56;100081.09;5032757;28;20413;-80
2021/07/05 13:33:48;;;;;;;4.78;1.70;;;;;;;29.98;41.60;100071.91;5032722;28;20048;-81
2021/07/05 13:36:53;;;;;;;3.63;2.05;;;;;;;30.10;41.74;100076.16;5035262;28;20547;-81
2021/07/05 13:40:01;;;;;;;6.47;2.33;;;;;;;30.18;40.84;100083.09;5053613;28;20052;-77
2021/07/05 13:43:08;;;;;;;6.35;2.40;;;;;;;30.33;40.64;100085.13;5053712;28;20056;-77
2021/07/05 13:46:13;;;;;;;5.88;2.30;;;;;;;30.45;40.04;100074.66;5053049;28;20056;-78
2021/07/05 13:49:18;;;;;;;3.83;2.30;;;;;;;30.49;38.61;100079.38;5053369;28;20044;-78
2021/07/05 13:52:34;;;;;;;7.80;3.53;;;;;;;30.47;39.63;100072.50;5054372;28;20056;-77
2021/07/05 13:55:40;;;;;;;5.38;2.17;;;;;;;30.54;40.07;100068.31;5053940;28;20052;-77
2021/07/05 13:58:53;;;;;;;6.18;3.60;;;;;;;30.60;40.21;100058.09;5054043;28;20048;-77
2021/07/05 14:01:57;;;;;;;6.65;1.83;;;;;;;30.57;40.47;100061.41;5053949;28;20047;-79
2021/07/05 14:05:03;;;;;;;6.93;2.70;;;;;;;30.39;41.72;100064.69;5054223;28;20051;-77
2021/07/05 14:08:09;;;;;;;6.20;3.03;;;;;;;30.37;41.83;100061.38;5052654;28;20052;-78
2021/07/05 14:11:18;;;;;;;9.57;2.88;;;;;;;30.25;40.09;100053.22;5053608;28;20048;-77
2021/07/05 14:14:23;;;;;;;6.90;2.55;;;;;;;30.15;41.16;100051.25;5054111;28;20067;-77
2021/07/05 14:17:28;;;;;;;5.80;5.05;;;;;;;30.02;41.31;100040.66;5054097;28;20059;-76
2021/07/05 14:20:33;;;;;;;10.93;6.70;;;;;;;30.19;42.28;100044.09;5052341;28;20075;-80
2021/07/05 14:23:38;;;;;;;21.20;8.60;;;;;;;30.24;43.27;100040.50;5054042;28;20067;-80
2021/07/05 14:26:42;;;;;;;3.80;2.10;;;;;;;30.27;41.29;100037.16;5053604;28;20072;-78